Time;durP1;ratioP1;P1;durP2;ratioP2;P2;SDS_P1;SDS_P2;PMS_P1;PMS_P2;Temp;Humidity;BMP_temperature;BMP_pressure;BME280_temperature;BME280_humidity;BME280_pressure;Samples;Min_cycle;Max_cycle;Signal;HPM_P1;HPM_P2
2022/09/05 00:01:27;;;;;;;;;;;14.50;99.90;;;;;;5034728;28;20601;-67
2022/09/05 00:04:00;;;;;;;;;;;14.50;99.90;;;;;;5034827;28;19924;-67
2022/09/05 00:06:51;;;;;;;;;;;14.50;99.90;;;;;;5034987;28;20196;-67
2022/09/05 00:09:24;;;;;;;;;;;14.50;99.90;;;;;;5034031;28;20029;-67
2022/09/05 00:11:57;;;;;;;;;;;14.50;99.90;;;;;;5032330;28;19928;-67
2022/09/05 00:14:24;;;;;;;;;;;14.60;99.90;;;;;;5029708;28;20000;-67
2022/09/05 00:17:26;;;;;;;;;;;14.60;99.90;;;;;;5015311;28;19968;-67
2022/09/05 00:20:18;;;;;;;;;;;14.50;99.90;;;;;;5015814;28;20440;-67
2022/09/05 00:23:08;;;;;;;;;;;14.60;99.90;;;;;;5015168;28;19925;-67
2022/09/05 00:25:58;;;;;;;;;;;14.60;99.90;;;;;;5015266;28;19926;-67
2022/09/05 00:28:37;;;;;;;;;;;14.60;99.90;;;;;;5015091;28;19956;-67
2022/09/05 00:31:23;;;;;;;;;;;14.60;99.90;;;;;;5015330;28;20379;-67
2022/09/05 00:34:16;;;;;;;;;;;14.60;99.90;;;;;;5013729;28;19925;-67
2022/09/05 00:36:48;;;;;;;;;;;14.60;99.90;;;;;;5015621;28;19932;-67
2022/09/05 00:39:34;;;;;;;;;;;14.60;99.90;;;;;;5014921;28;19928;-67
2022/09/05 00:42:13;;;;;;;;;;;14.60;99.90;;;;;;5015115;28;20023;-67
2022/09/05 00:44:57;;;;;;;;;;;14.60;99.90;;;;;;5014270;28;19960;-67
2022/09/05 00:47:30;;;;;;;;;;;14.60;99.90;;;;;;5014169;28;19925;-67
2022/09/05 00:50:02;;;;;;;;;;;14.70;99.90;;;;;;5015377;28;19924;-65
2022/09/05 00:52:47;;;;;;;;;;;14.60;99.90;;;;;;5014683;28;19936;-68
2022/09/05 00:55:39;;;;;;;;;;;14.60;99.90;;;;;;5020041;28;19929;-67
2022/09/05 00:58:15;;;;;;;;;;;14.60;99.90;;;;;;5034168;28;20494;-67
2022/09/05 01:00:51;;;;;;;;;;;14.60;99.90;;;;;;5034861;28;20444;-67
2022/09/05 01:03:33;;;;;;;;;;;14.60;99.90;;;;;;5032033;28;19925;-67
2022/09/05 01:06:16;;;;;;;;;;;14.60;99.90;;;;;;5034947;28;19986;-67
2022/09/05 01:09:01;;;;;;;;;;;14.60;99.90;;;;;;5032315;28;20908;-68
2022/09/05 01:11:43;;;;;;;;;;;14.60;99.90;;;;;;5032743;28;19925;-68
2022/09/05 01:14:28;;;;;;;;;;;14.60;99.90;;;;;;5032635;28;19920;-68
2022/09/05 01:17:04;;;;;;;;;;;14.60;99.90;;;;;;5034470;28;19982;-67
2022/09/05 01:19:49;;;;;;;;;;;14.60;99.90;;;;;;5034515;28;19959;-67
2022/09/05 01:22:25;;;;;;;;;;;14.60;99.90;;;;;;5033773;28;19931;-67
2022/09/05 01:25:00;;;;;;;;;;;14.50;99.90;;;;;;5033409;28;19925;-67
2022/09/05 01:27:39;;;;;;;;;;;14.50;99.90;;;;;;5034168;28;19921;-67
2022/09/05 01:30:34;;;;;;;;;;;14.50;99.90;;;;;;5034571;28;20045;-68
2022/09/05 01:33:18;;;;;;;;;;;14.50;99.90;;;;;;5032664;28;19925;-68
2022/09/05 01:36:00;;;;;;;;;;;14.50;99.90;;;;;;5034090;28;20773;-67
2022/09/05 01:38:33;;;;;;;;;;;14.50;99.90;;;;;;5033259;28;19933;-67
2022/09/05 01:41:05;;;;;;;;;;;14.50;99.90;;;;;;5034466;28;19924;-67
2022/09/05 01:44:03;;;;;;;;;;;14.60;99.90;;;;;;5032657;28;19925;-67
2022/09/05 01:46:36;;;;;;;;;;;14.50;99.90;;;;;;5034260;28;19932;-67
2022/09/05 01:49:08;;;;;;;;;;;14.60;99.90;;;;;;5032935;28;19959;-68
2022/09/05 01:51:39;;;;;;;;;;;14.60;99.90;;;;;;5034198;28;19932;-67
2022/09/05 01:54:08;;;;;;;;;;;14.60;99.90;;;;;;5032671;28;19932;-68
2022/09/05 01:57:15;;;;;;;;;;;14.60;99.90;;;;;;5033582;28;19924;-68
2022/09/05 01:59:51;;;;;;;;;;;14.60;99.90;;;;;;4990567;28;19932;-67
2022/09/05 02:02:38;;;;;;;;;;;14.60;99.90;;;;;;5024813;28;19928;-68
2022/09/05 02:05:10;;;;;;;;;;;14.60;99.90;;;;;;5002204;28;19924;-67
2022/09/05 02:07:45;;;;;;;;;;;14.60;99.90;;;;;;5033726;28;20368;-67
2022/09/05 02:10:31;;;;;;;;;;;14.60;99.90;;;;;;5033046;28;19921;-67
2022/09/05 02:13:16;;;;;;;;;;;14.60;99.90;;;;;;5029724;28;20017;-68
2022/09/05 02:15:45;;;;;;;;;;;14.60;99.90;;;;;;5032680;28;20560;-67
2022/09/05 02:18:28;;;;;;;;;;;14.60;99.90;;;;;;5033222;28;19924;-67
2022/09/05 02:20:59;;;;;;;;;;;14.60;99.90;;;;;;5034002;28;20358;-67
2022/09/05 02:23:25;;;;;;;;;;;14.60;99.90;;;;;;5034356;28;19924;-67
2022/09/05 02:26:21;;;;;;;;;;;14.60;99.90;;;;;;5037452;28;19960;-67
2022/09/05 02:28:54;;;;;;;;;;;14.60;99.90;;;;;;5037373;28;20845;-67
2022/09/05 02:31:42;;;;;;;;;;;14.60;99.90;;;;;;5037330;28;19920;-67
2022/09/05 02:34:29;;;;;;;;;;;14.70;99.90;;;;;;5035739;28;19924;-68
2022/09/05 02:37:07;;;;;;;;;;;14.70;99.90;;;;;;5037679;28;19925;-67
2022/09/05 02:39:38;;;;;;;;;;;14.70;99.90;;;;;;5037280;28;19925;-67
2022/09/05 02:42:28;;;;;;;;;;;14.70;99.90;;;;;;5037584;28;20502;-67
2022/09/05 02:45:15;;;;;;;;;;;14.70;99.90;;;;;;5036082;28;20102;-67
2022/09/05 02:48:03;;;;;;;;;;;14.70;99.90;;;;;;5037743;28;20525;-67
2022/09/05 02:51:03;;;;;;;;;;;14.70;99.90;;;;;;5036684;28;20011;-67
2022/09/05 02:54:02;;;;;;;;;;;14.70;99.90;;;;;;5036113;28;20722;-67
2022/09/05 02:57:12;;;;;;;;;;;14.60;99.90;;;;;;5036474;28;20047;-67
2022/09/05 03:00:10;;;;;;;;;;;14.60;99.90;;;;;;4997360;28;19932;-67
2022/09/05 03:02:57;;;;;;;;;;;14.60;99.90;;;;;;5024297;28;19983;-67
2022/09/05 03:05:24;;;;;;;;;;;14.60;99.90;;;;;;5017110;28;19956;-67
2022/09/05 03:08:05;;;;;;;;;;;14.60;99.90;;;;;;5017230;28;19956;-67
2022/09/05 03:10:52;;;;;;;;;;;14.60;99.90;;;;;;5022108;28;20673;-67
2022/09/05 03:13:32;;;;;;;;;;;14.50;99.90;;;;;;5033511;28;20382;-67
2022/09/05 03:16:18;;;;;;;;;;;14.50;99.90;;;;;;5000061;28;19925;-67
2022/09/05 03:18:45;;;;;;;;;;;14.50;99.90;;;;;;5016749;28;19953;-67
2022/09/05 03:21:24;;;;;;;;;;;14.50;99.90;;;;;;5014977;28;19986;-67
2022/09/05 03:24:10;;;;;;;;;;;14.50;99.90;;;;;;5015801;28;19924;-67
2022/09/05 03:26:57;;;;;;;;;;;14.40;99.90;;;;;;5015974;28;19925;-67
2022/09/05 03:29:24;;;;;;;;;;;14.40;99.90;;;;;;5016231;28;19928;-67
2022/09/05 03:32:10;;;;;;;;;;;14.40;99.90;;;;;;5015993;28;19929;-67
2022/09/05 03:34:39;;;;;;;;;;;14.40;99.90;;;;;;5015484;28;19925;-67
2022/09/05 03:37:32;;;;;;;;;;;14.40;99.90;;;;;;5015973;28;19925;-68
2022/09/05 03:40:11;;;;;;;;;;;14.40;99.90;;;;;;5015065;28;19935;-67
2022/09/05 03:42:47;;;;;;;;;;;14.40;99.90;;;;;;5015832;28;20387;-67
2022/09/05 03:45:20;;;;;;;;;;;14.40;99.90;;;;;;5015392;28;19932;-67
2022/09/05 03:48:21;;;;;;;;;;;14.40;99.90;;;;;;5014649;28;20111;-68
2022/09/05 03:50:54;;;;;;;;;;;14.40;99.90;;;;;;5017047;28;19924;-67
2022/09/05 03:53:59;;;;;;;;;;;14.40;99.90;;;;;;5014955;28;20404;-67
2022/09/05 03:56:45;;;;;;;;;;;14.40;99.90;;;;;;5031409;28;19975;-67
2022/09/05 03:59:35;;;;;;;;;;;14.40;99.90;;;;;;5015504;28;19925;-67
2022/09/05 04:02:05;;;;;;;;;;;14.40;99.90;;;;;;5024966;28;20366;-67
2022/09/05 04:04:53;;;;;;;;;;;14.40;99.90;;;;;;5034313;28;19924;-67
2022/09/05 04:08:06;;;;;;;;;;;14.40;99.90;;;;;;5035402;28;20094;-67
2022/09/05 04:11:02;;;;;;;;;;;14.40;99.90;;;;;;5020620;28;19956;-68
2022/09/05 04:13:47;;;;;;;;;;;14.40;99.90;;;;;;5032579;28;19929;-53
2022/09/05 04:16:16;;;;;;;;;;;14.40;99.90;;;;;;5035415;28;20306;-53
2022/09/05 04:18:55;;;;;;;;;;;14.40;99.90;;;;;;5034961;28;19925;-53
2022/09/05 04:21:24;;;;;;;;;;;14.40;99.90;;;;;;5035172;28;19924;-56
2022/09/05 04:23:59;;;;;;;;;;;14.40;99.90;;;;;;5033458;28;19924;-54
2022/09/05 04:26:29;;;;;;;;;;;14.50;99.90;;;;;;5035758;28;19925;-55
2022/09/05 04:29:02;;;;;;;;;;;14.50;99.90;;;;;;5034327;28;19932;-57
2022/09/05 04:31:38;;;;;;;;;;;14.40;99.90;;;;;;5034059;28;19986;-56
2022/09/05 04:34:05;;;;;;;;;;;14.50;99.90;;;;;;5034259;28;19924;-57
2022/09/05 04:36:33;;;;;;;;;;;14.50;99.90;;;;;;5033990;28;20406;-55
2022/09/05 04:39:18;;;;;;;;;;;14.50;99.90;;;;;;5035008;28;19931;-55
2022/09/05 04:41:51;;;;;;;;;;;14.50;99.90;;;;;;5034762;28;20285;-57
2022/09/05 04:44:27;;;;;;;;;;;14.50;99.90;;;;;;5034050;28;19924;-57
2022/09/05 04:46:55;;;;;;;;;;;14.50;99.90;;;;;;5034403;28;20505;-58
2022/09/05 04:49:27;;;;;;;;;;;14.50;99.90;;;;;;5033524;28;19925;-57
2022/09/05 04:52:13;;;;;;;;;;;14.50;99.90;;;;;;5033636;28;19925;-57
2022/09/05 04:55:05;;;;;;;;;;;14.50;99.90;;;;;;5034101;28;20007;-57
2022/09/05 04:57:47;;;;;;;;;;;14.50;99.90;;;;;;5026249;28;19985;-55
2022/09/05 05:00:43;;;;;;;;;;;14.40;99.90;;;;;;5034363;28;19921;-58
2022/09/05 05:03:32;;;;;;;;;;;14.40;99.90;;;;;;5008578;28;20575;-57
2022/09/05 05:06:19;;;;;;;;;;;14.40;99.90;;;;;;5014779;28;19925;-57
2022/09/05 05:09:05;;;;;;;;;;;14.40;99.90;;;;;;5020896;28;19921;-54
2022/09/05 05:11:44;;;;;;;;;;;14.30;99.90;;;;;;5034316;28;19925;-55
2022/09/05 05:14:43;;;;;;;;;;;14.30;99.90;;;;;;5023240;28;19925;-57
2022/09/05 05:17:37;;;;;;;;;;;14.30;99.90;;;;;;5033726;28;19951;-54
2022/09/05 05:20:27;;;;;;;;;;;14.30;99.90;;;;;;5009217;28;20469;-53
2022/09/05 05:23:12;;;;;;;;;;;14.30;99.90;;;;;;5033902;28;20008;-54
2022/09/05 05:25:45;;;;;;;;;;;14.40;99.90;;;;;;5033518;28;20015;-58
2022/09/05 05:28:15;;;;;;;;;;;14.40;99.90;;;;;;5034281;28;20129;-56
2022/09/05 05:30:50;;;;;;;;;;;14.40;99.90;;;;;;5033752;28;20606;-60
2022/09/05 05:33:28;;;;;;;;;;;14.40;99.90;;;;;;5031178;28;19929;-56
2022/09/05 05:35:56;;;;;;;;;;;14.40;99.90;;;;;;5033591;28;20710;-55
2022/09/05 05:38:26;;;;;;;;;;;14.40;99.90;;;;;;5033227;28;20104;-52
2022/09/05 05:40:56;;;;;;;;;;;14.40;99.90;;;;;;5033413;28;19931;-53
2022/09/05 05:43:30;;;;;;;;;;;14.50;99.90;;;;;;5032259;28;19925;-55
2022/09/05 05:45:58;;;;;;;;;;;14.50;99.90;;;;;;5016679;28;19946;-54
2022/09/05 05:48:43;;;;;;;;;;;14.50;99.90;;;;;;5015560;28;19928;-54
2022/09/05 05:51:32;;;;;;;;;;;14.60;99.90;;;;;;5033132;28;19960;-55
2022/09/05 05:54:35;;;;;;;;;;;14.60;99.90;;;;;;5032024;28;19931;-56
2022/09/05 05:57:20;;;;;;;;;;;14.60;99.90;;;;;;5033991;28;19931;-55
2022/09/05 05:59:53;;;;;;;;;;;14.70;99.90;;;;;;5032449;28;19921;-56
2022/09/05 06:02:31;;;;;;;;;;;14.80;99.90;;;;;;5033840;28;19987;-58
2022/09/05 06:05:04;;;;;;;;;;;14.90;99.90;;;;;;5032061;28;20296;-52
2022/09/05 06:07:44;;;;;;;;;;;14.90;99.90;;;;;;5049357;28;19924;-56
2022/09/05 06:10:37;;;;;;;;;;;15.00;99.90;;;;;;5047135;28;19925;-55
2022/09/05 06:13:39;;;;;;;;;;;15.10;99.90;;;;;;5032433;28;19924;-54
2022/09/05 06:16:37;;;;;;;;;;;15.30;99.90;;;;;;5030730;28;20015;-55
2022/09/05 06:19:22;;;;;;;;;;;15.40;99.90;;;;;;5033879;28;19929;-54
2022/09/05 06:21:54;;;;;;;;;;;15.50;99.90;;;;;;5032820;28;20066;-55
2022/09/05 06:24:44;;;;;;;;;;;15.60;99.90;;;;;;5032127;28;19925;-55
2022/09/05 06:27:14;;;;;;;;;;;15.70;99.90;;;;;;5033194;28;19925;-54
2022/09/05 06:29:47;;;;;;;;;;;15.70;99.90;;;;;;5032855;28;19928;-53
2022/09/05 06:32:14;;;;;;;;;;;15.80;99.90;;;;;;5033213;28;20039;-54
2022/09/05 06:34:41;;;;;;;;;;;16.00;99.90;;;;;;5031271;28;20463;-54
2022/09/05 06:37:26;;;;;;;;;;;16.00;99.90;;;;;;5034111;28;19925;-52
2022/09/05 06:40:05;;;;;;;;;;;16.10;99.90;;;;;;5032904;28;19956;-53
2022/09/05 06:42:41;;;;;;;;;;;16.10;99.90;;;;;;5033218;28;19925;-55
2022/09/05 06:45:09;;;;;;;;;;;16.10;99.90;;;;;;5032583;28;20074;-54
2022/09/05 06:48:00;;;;;;;;;;;16.10;99.90;;;;;;5015477;28;19952;-54
2022/09/05 06:50:33;;;;;;;;;;;16.10;99.90;;;;;;5032539;28;19960;-52
2022/09/05 06:53:33;;;;;;;;;;;16.10;99.90;;;;;;5018362;28;20340;-54
2022/09/05 06:56:15;;;;;;;;;;;16.20;99.90;;;;;;5018271;28;20011;-53
2022/09/05 06:59:07;;;;;;;;;;;16.20;99.90;;;;;;5032916;28;19927;-54
2022/09/05 07:01:41;;;;;;;;;;;16.30;99.90;;;;;;5045191;28;19932;-54
2022/09/05 07:04:37;;;;;;;;;;;16.40;99.90;;;;;;5031842;28;19929;-56
2022/09/05 07:07:32;;;;;;;;;;;16.60;99.90;;;;;;5033379;28;19924;-58
2022/09/05 07:10:03;;;;;;;;;;;16.80;99.90;;;;;;5036438;28;20196;-58
2022/09/05 07:13:08;;;;;;;;;;;17.10;99.90;;;;;;5033973;28;19936;-58
2022/09/05 07:15:39;;;;;;;;;;;17.30;99.90;;;;;;5014016;28;19932;-61
2022/09/05 07:18:12;;;;;;;;;;;17.50;99.90;;;;;;5022693;28;20612;-57
2022/09/05 07:20:45;;;;;;;;;;;17.70;99.90;;;;;;5016344;28;20296;-55
2022/09/05 07:23:42;;;;;;;;;;;17.80;99.90;;;;;;5016296;28;19925;-55
2022/09/05 07:26:31;;;;;;;;;;;18.00;99.90;;;;;;5034668;28;19960;-55
2022/09/05 07:29:20;;;;;;;;;;;18.20;99.90;;;;;;5052552;28;19927;-55
2022/09/05 07:31:49;;;;;;;;;;;18.30;99.90;;;;;;5036311;28;19995;-54
2022/09/05 07:34:30;;;;;;;;;;;18.50;99.90;;;;;;5036250;28;19928;-56
2022/09/05 07:37:08;;;;;;;;;;;18.80;99.90;;;;;;5036310;28;20543;-56
2022/09/05 07:39:53;;;;;;;;;;;19.20;99.90;;;;;;5036665;28;20437;-55
2022/09/05 07:42:23;;;;;;;;;;;19.50;99.90;;;;;;5036133;28;20399;-57
2022/09/05 07:44:55;;;;;;;;;;;19.80;99.90;;;;;;5034721;28;19927;-57
2022/09/05 07:47:30;;;;;;;;;;;20.00;99.90;;;;;;5036390;28;19924;-57
2022/09/05 07:49:58;;;;;;;;;;;20.30;99.90;;;;;;5018232;28;19924;-57
2022/09/05 07:52:47;;;;;;;;;;;20.50;99.90;;;;;;5021431;28;20492;-58
2022/09/05 07:55:35;;;;;;;;;;;20.60;99.90;;;;;;5017940;28;20007;-58
2022/09/05 07:58:29;;;;;;;;;;;20.80;99.90;;;;;;5023219;28;19929;-57
2022/09/05 08:00:57;;;;;;;;;;;20.90;99.90;;;;;;5016067;28;19929;-54
2022/09/05 08:03:28;;;;;;;;;;;20.90;99.90;;;;;;5033239;28;19974;-55
2022/09/05 08:05:56;;;;;;;;;;;20.90;99.90;;;;;;5035648;28;19924;-54
2022/09/05 08:08:27;;;;;;;;;;;21.10;99.90;;;;;;5029489;28;19925;-55
2022/09/05 08:11:00;;;;;;;;;;;21.30;99.90;;;;;;5035082;28;19924;-54
2022/09/05 08:13:50;;;;;;;;;;;21.70;99.90;;;;;;5035164;28;19994;-53
2022/09/05 08:16:19;;;;;;;;;;;21.90;99.90;;;;;;5017750;28;20075;-56
2022/09/05 08:18:49;;;;;;;;;;;22.00;99.90;;;;;;5016814;28;19978;-56
2022/09/05 08:21:29;;;;;;;;;;;22.10;99.90;;;;;;5034867;28;19925;-55
2022/09/05 08:23:56;;;;;;;;;;;22.10;99.90;;;;;;5035119;28;19925;-54
2022/09/05 08:26:22;;;;;;;;;;;22.20;99.90;;;;;;5035974;28;19928;-55
2022/09/05 08:29:12;;;;;;;;;;;22.20;99.90;;;;;;5024283;28;19925;-53
2022/09/05 08:31:45;;;;;;;;;;;22.20;99.90;;;;;;4972397;28;19924;-55
2022/09/05 08:34:14;;;;;;;;;;;22.10;99.90;;;;;;5014018;28;19925;-56
2022/09/05 08:36:45;;;;;;;;;;;22.10;99.90;;;;;;4998705;28;19929;-55
2022/09/05 08:39:15;;;;;;;;;;;22.10;99.90;;;;;;5015041;28;19933;-56
2022/09/05 08:41:57;;;;;;;;;;;22.20;99.90;;;;;;5015538;28;19925;-56
2022/09/05 08:44:36;;;;;;;;;;;22.30;99.90;;;;;;5014411;28;20669;-55
2022/09/05 08:47:26;;;;;;;;;;;22.40;99.90;;;;;;5016335;28;20044;-55
2022/09/05 08:50:13;;;;;;;;;;;22.80;99.90;;;;;;5014993;28;19932;-54
2022/09/05 08:52:40;;;;;;;;;;;23.30;99.90;;;;;;5016300;28;19935;-54
2022/09/05 08:55:25;;;;;;;;;;;23.80;99.90;;;;;;5016166;28;19929;-54
2022/09/05 08:58:04;;;;;;;;;;;24.10;99.90;;;;;;5006072;28;19925;-54
2022/09/05 09:00:37;;;;;;;;;;;24.60;99.90;;;;;;5034927;28;19978;-55
2022/09/05 09:03:14;;;;;;;;;;;25.10;99.90;;;;;;5015798;28;19973;-57
2022/09/05 09:06:10;;;;;;;;;;;25.50;90.90;;;;;;5015168;28;19991;-55
2022/09/05 09:08:55;;;;;;;;;;;25.70;92.20;;;;;;5014614;28;19925;-58
2022/09/05 09:11:37;;;;;;;;;;;26.00;84.60;;;;;;5026278;28;19928;-57
2022/09/05 09:14:25;;;;;;;;;;;26.30;86.90;;;;;;5031242;28;19921;-56
2022/09/05 09:17:01;;;;;;;;;;;26.60;82.80;;;;;;5014842;28;19932;-53
2022/09/05 09:19:37;;;;;;;;;;;26.80;76.80;;;;;;5020868;28;19924;-57
2022/09/05 09:22:24;;;;;;;;;;;26.70;72.90;;;;;;5014317;28;19925;-55
2022/09/05 09:25:07;;;;;;;;;;;26.60;72.20;;;;;;5013424;28;19928;-53
2022/09/05 09:27:53;;;;;;;;;;;26.50;71.60;;;;;;5015652;28;19925;-57
2022/09/05 09:30:42;;;;;;;;;;;26.50;74.50;;;;;;5014454;28;19925;-57
2022/09/05 09:33:11;;;;;;;;;;;26.80;73.80;;;;;;5045649;28;19924;-57
2022/09/05 09:35:47;;;;;;;;;;;27.00;71.30;;;;;;5012252;28;19984;-56
2022/09/05 09:38:14;;;;;;;;;;;27.20;73.30;;;;;;5015349;28;19925;-59
2022/09/05 09:40:54;;;;;;;;;;;27.50;77.90;;;;;;5012261;28;19928;-57
2022/09/05 09:43:47;;;;;;;;;;;27.80;71.30;;;;;;5013867;28;19933;-56
2022/09/05 09:46:29;;;;;;;;;;;28.10;70.60;;;;;;5014319;28;19979;-51
2022/09/05 09:49:02;;;;;;;;;;;28.20;64.00;;;;;;5014100;28;19925;-55
2022/09/05 09:51:33;;;;;;;;;;;28.20;62.40;;;;;;5015152;28;19963;-55
2022/09/05 09:54:18;;;;;;;;;;;28.10;63.10;;;;;;5031549;28;19924;-52
2022/09/05 09:57:04;;;;;;;;;;;28.00;59.30;;;;;;5026182;28;19925;-55
2022/09/05 09:59:38;;;;;;;;;;;28.00;59.60;;;;;;5006424;28;20673;-53
2022/09/05 10:02:23;;;;;;;;;;;27.90;59.50;;;;;;5023425;28;19924;-55
2022/09/05 10:05:28;;;;;;;;;;;27.70;58.90;;;;;;5013406;28;19925;-57
2022/09/05 10:08:15;;;;;;;;;;;27.60;60.30;;;;;;5014255;28;19933;-58
2022/09/05 10:11:21;;;;;;;;;;;27.60;63.60;;;;;;5022346;28;19933;-57
2022/09/05 10:14:26;;;;;;;;;;;27.70;60.00;;;;;;5030466;28;20043;-58
2022/09/05 10:17:16;;;;;;;;;;;27.60;60.90;;;;;;5013795;28;20395;-58
2022/09/05 10:19:50;;;;;;;;;;;27.40;60.00;;;;;;5027819;28;20031;-57
2022/09/05 10:22:48;;;;;;;;;;;27.10;61.80;;;;;;5033386;28;19931;-57
2022/09/05 10:25:33;;;;;;;;;;;26.80;63.20;;;;;;5033390;28;19925;-56
2022/09/05 10:28:04;;;;;;;;;;;26.60;65.70;;;;;;5033288;28;19924;-58
2022/09/05 10:30:41;;;;;;;;;;;26.30;67.00;;;;;;5033912;28;19928;-57
2022/09/05 10:33:42;;;;;;;;;;;26.10;70.10;;;;;;5019315;28;19925;-56
2022/09/05 10:36:30;;;;;;;;;;;26.10;73.70;;;;;;4999839;28;19932;-56
2022/09/05 10:39:14;;;;;;;;;;;26.10;72.40;;;;;;5013194;28;20708;-54
2022/09/05 10:41:57;;;;;;;;;;;26.00;73.90;;;;;;5014211;28;20462;-58
2022/09/05 10:44:35;;;;;;;;;;;25.90;75.20;;;;;;5014859;28;19925;-57
2022/09/05 10:47:04;;;;;;;;;;;25.80;77.50;;;;;;5027034;28;19932;-57
2022/09/05 10:49:39;;;;;;;;;;;25.60;81.80;;;;;;5029264;28;20766;-56
2022/09/05 10:52:10;;;;;;;;;;;25.60;90.70;;;;;;5018162;28;19932;-55
2022/09/05 10:55:14;;;;;;;;;;;25.60;88.20;;;;;;5031699;28;19959;-57
2022/09/05 10:57:53;;;;;;;;;;;25.60;84.40;;;;;;4957732;28;19926;-55
2022/09/05 11:00:38;;;;;;;;;;;25.50;85.70;;;;;;4999062;28;19975;-57
2022/09/05 11:03:39;;;;;;;;;;;25.40;90.40;;;;;;5032680;28;20383;-56
2022/09/05 11:06:10;;;;;;;;;;;25.30;91.10;;;;;;5036419;28;19925;-53
2022/09/05 11:08:44;;;;;;;;;;;25.30;91.40;;;;;;5036340;28;20467;-54
2022/09/05 11:11:13;;;;;;;;;;;25.40;95.30;;;;;;5036709;28;19925;-53
2022/09/05 11:14:02;;;;;;;;;;;25.50;94.60;;;;;;5033578;28;20634;-51
2022/09/05 11:16:45;;;;;;;;;;;25.80;95.00;;;;;;5016536;28;20463;-55
2022/09/05 11:19:18;;;;;;;;;;;25.90;90.70;;;;;;5019496;28;19921;-53
2022/09/05 11:22:04;;;;;;;;;;;26.00;86.10;;;;;;5034281;28;19928;-53
2022/09/05 11:24:56;;;;;;;;;;;26.10;86.30;;;;;;5034264;28;20479;-55
2022/09/05 11:27:22;;;;;;;;;;;26.30;87.10;;;;;;5036890;28;19935;-54
2022/09/05 11:30:01;;;;;;;;;;;26.50;90.20;;;;;;5018090;28;19929;-53
2022/09/05 11:32:37;;;;;;;;;;;26.60;87.20;;;;;;5023200;28;19951;-53
2022/09/05 11:35:25;;;;;;;;;;;26.70;79.90;;;;;;5032743;28;19932;-62
2022/09/05 11:38:45;;;;;;;;;;;26.60;84.60;;;;;;5035277;28;19929;-59
2022/09/05 11:41:51;;;;;;;;;;;26.60;85.90;;;;;;5018213;28;19963;-53
2022/09/05 11:44:28;;;;;;;;;;;26.60;81.30;;;;;;5035324;28;19920;-51
2022/09/05 11:47:14;;;;;;;;;;;26.50;81.40;;;;;;5033054;28;20389;-53
2022/09/05 11:50:14;;;;;;;;;;;26.50;79.80;;;;;;5035400;28;19924;-51
2022/09/05 11:52:56;;;;;;;;;;;26.40;83.00;;;;;;5033470;28;19920;-52
2022/09/05 11:55:25;;;;;;;;;;;26.20;77.50;;;;;;5032963;28;19963;-61
2022/09/05 11:58:10;;;;;;;;;;;26.00;78.90;;;;;;5023687;28;20754;-55
2022/09/05 12:01:15;;;;;;;;;;;25.90;82.80;;;;;;5030315;28;20025;-53
2022/09/05 12:04:13;;;;;;;;;;;25.70;88.70;;;;;;5032007;28;19925;-54
2022/09/05 12:06:55;;;;;;;;;;;25.50;89.90;;;;;;5034326;28;20399;-61
2022/09/05 12:09:34;;;;;;;;;;;25.40;90.00;;;;;;5034491;28;19929;-51
2022/09/05 12:12:25;;;;;;;;;;;25.30;97.10;;;;;;5034838;28;19924;-53
2022/09/05 12:15:15;;;;;;;;;;;25.20;99.00;;;;;;5027765;28;20494;-49
2022/09/05 12:18:02;;;;;;;;;;;25.00;99.90;;;;;;5035380;28;19990;-52
2022/09/05 12:20:56;;;;;;;;;;;24.80;99.90;;;;;;5033284;28;20757;-53
2022/09/05 12:23:28;;;;;;;;;;;24.70;99.90;;;;;;5034997;28;19932;-52
2022/09/05 12:26:20;;;;;;;;;;;24.50;99.90;;;;;;5025395;28;19925;-50
2022/09/05 12:29:09;;;;;;;;;;;24.40;99.90;;;;;;5013350;28;19920;-48
2022/09/05 12:32:00;;;;;;;;;;;24.40;99.90;;;;;;5004846;28;19921;-56
2022/09/05 12:34:54;;;;;;;;;;;24.50;99.90;;;;;;4976439;28;19933;-50
2022/09/05 12:37:51;;;;;;;;;;;24.70;99.90;;;;;;4988363;28;19975;-51
2022/09/05 12:40:41;;;;;;;;;;;24.90;99.90;;;;;;4990639;28;19961;-55
2022/09/05 12:43:29;;;;;;;;;;;25.20;99.90;;;;;;4980371;28;20580;-52
2022/09/05 12:46:25;;;;;;;;;;;25.50;99.90;;;;;;4996240;28;19925;-56
2022/09/05 12:48:54;;;;;;;;;;;25.90;99.90;;;;;;4995433;28;20064;-55
2022/09/05 12:51:22;;;;;;;;;;;26.20;99.90;;;;;;4994555;28;19925;-53
2022/09/05 12:54:14;;;;;;;;;;;26.50;99.90;;;;;;4995327;28;19935;-52
2022/09/05 12:57:26;;;;;;;;;;;26.70;96.80;;;;;;4980931;28;19925;-54
2022/09/05 13:00:15;;;;;;;;;;;27.10;96.80;;;;;;4995239;28;19925;-55
2022/09/05 13:03:03;;;;;;;;;;;27.50;84.30;;;;;;4995929;28;20554;-53
2022/09/05 13:05:55;;;;;;;;;;;27.80;87.50;;;;;;5010025;28;19933;-53
2022/09/05 13:08:24;;;;;;;;;;;28.20;84.30;;;;;;5010313;28;20525;-51
2022/09/05 13:10:52;;;;;;;;;;;28.40;77.20;;;;;;4995555;28;19925;-53
2022/09/05 13:13:47;;;;;;;;;;;28.70;75.10;;;;;;4989864;28;20470;-53
2022/09/05 13:16:38;;;;;;;;;;;29.00;65.50;;;;;;4974208;28;19922;-56
2022/09/05 13:19:11;;;;;;;;;;;29.40;65.60;;;;;;4975434;28;20572;-54
2022/09/05 13:21:40;;;;;;;;;;;29.60;64.30;;;;;;4976543;28;19921;-56
2022/09/05 13:24:26;;;;;;;;;;;29.70;62.00;;;;;;5004508;28;19945;-55
2022/09/05 13:27:13;;;;;;;;;;;29.90;62.50;;;;;;5006257;28;19988;-54
2022/09/05 13:29:53;;;;;;;;;;;30.10;60.60;;;;;;4974623;28;20021;-54
2022/09/05 13:32:45;;;;;;;;;;;30.30;57.90;;;;;;4985374;28;20099;-55
2022/09/05 13:35:35;;;;;;;;;;;30.40;57.00;;;;;;4993921;28;20410;-54
2022/09/05 13:38:36;;;;;;;;;;;30.50;56.10;;;;;;4995157;28;20266;-56
2022/09/05 13:41:21;;;;;;;;;;;30.40;56.10;;;;;;4993568;28;20016;-53
2022/09/05 13:43:55;;;;;;;;;;;30.40;52.90;;;;;;5007802;28;20076;-55
2022/09/05 13:46:54;;;;;;;;;;;30.40;57.30;;;;;;4994989;28;19925;-53
2022/09/05 13:49:27;;;;;;;;;;;30.50;61.60;;;;;;4992892;28;19960;-55
2022/09/05 13:52:07;;;;;;;;;;;30.40;63.70;;;;;;4994012;28;19952;-56
2022/09/05 13:54:38;;;;;;;;;;;30.50;63.90;;;;;;4993813;28;19926;-54
2022/09/05 13:57:23;;;;;;;;;;;30.60;62.80;;;;;;4994724;28;19956;-52
2022/09/05 14:00:11;;;;;;;;;;;30.60;65.10;;;;;;4991937;28;19948;-54
2022/09/05 14:03:09;;;;;;;;;;;30.50;64.50;;;;;;4994731;28;19926;-56
2022/09/05 14:06:10;;;;;;;;;;;30.40;64.30;;;;;;4993333;28;19925;-56
2022/09/05 14:09:13;;;;;;;;;;;30.30;65.60;;;;;;4994547;28;19925;-55
2022/09/05 14:12:36;;;;;;;;;;;30.10;66.40;;;;;;5005377;28;20630;-55
2022/09/05 14:15:10;;;;;;;;;;;29.90;64.70;;;;;;4956959;28;19960;-55
2022/09/05 14:17:46;;;;;;;;;;;29.90;65.50;;;;;;4983400;28;19922;-57
2022/09/05 14:23:12;;;;;;;;;;;29.50;65.00;;;;;;4985386;28;20617;-56
2022/09/05 14:25:43;;;;;;;;;;;29.30;66.20;;;;;;4992399;28;20434;-55
2022/09/05 14:28:12;;;;;;;;;;;29.20;64.30;;;;;;4997007;28;19932;-55
2022/09/05 14:30:45;;;;;;;;;;;29.10;65.30;;;;;;4995999;28;19925;-53
2022/09/05 14:33:36;;;;;;;;;;;29.10;66.10;;;;;;4982606;28;19932;-55
2022/09/05 14:36:40;;;;;;;;;;;29.10;66.30;;;;;;4997456;28;19926;-55
2022/09/05 14:39:36;;;;;;;;;;;29.00;63.70;;;;;;4997869;28;19965;-55
2022/09/05 14:42:19;;;;;;;;;;;29.00;63.70;;;;;;4997602;28;20493;-55
2022/09/05 14:44:56;;;;;;;;;;;29.00;62.90;;;;;;4997395;28;19931;-54
2022/09/05 14:47:39;;;;;;;;;;;29.00;63.20;;;;;;5013043;28;19957;-55
2022/09/05 14:50:15;;;;;;;;;;;28.90;62.30;;;;;;4997686;28;19960;-55
2022/09/05 14:52:57;;;;;;;;;;;28.80;64.70;;;;;;4998081;28;19961;-57
2022/09/05 14:55:51;;;;;;;;;;;28.90;64.80;;;;;;4996936;28;19921;-55
2022/09/05 14:58:40;;;;;;;;;;;29.00;65.30;;;;;;4997959;28;19926;-57
2022/09/05 15:01:29;;;;;;;;;;;29.00;64.10;;;;;;4995458;28;19929;-56
2022/09/05 15:04:21;;;;;;;;;;;29.00;64.50;;;;;;4997991;28;20048;-55
2022/09/05 15:07:19;;;;;;;;;;;28.80;63.20;;;;;;4996451;28;20339;-56
2022/09/05 15:10:03;;;;;;;;;;;28.70;60.70;;;;;;4998117;28;19967;-54
2022/09/05 15:12:50;;;;;;;;;;;28.60;62.30;;;;;;4983540;28;19922;-55
2022/09/05 15:15:29;;;;;;;;;;;28.50;64.00;;;;;;4997524;28;19975;-56
2022/09/05 15:18:02;;;;;;;;;;;28.40;62.80;;;;;;4997217;28;19926;-56
2022/09/05 15:20:34;;;;;;;;;;;28.40;61.20;;;;;;4997122;28;20452;-55
2022/09/05 15:23:14;;;;;;;;;;;28.40;60.90;;;;;;4996836;28;19932;-55
2022/09/05 15:25:43;;;;;;;;;;;28.30;59.30;;;;;;4993255;28;19996;-56
2022/09/05 15:28:28;;;;;;;;;;;28.20;60.30;;;;;;4997179;28;19932;-59
2022/09/05 15:30:56;;;;;;;;;;;28.20;59.40;;;;;;4996564;28;19925;-59
2022/09/05 15:33:27;;;;;;;;;;;28.00;61.20;;;;;;4996387;28;19933;-59
2022/09/05 15:35:54;;;;;;;;;;;27.90;60.80;;;;;;5011650;28;19925;-59
2022/09/05 15:38:27;;;;;;;;;;;27.90;59.30;;;;;;4996459;28;20343;-58
2022/09/05 15:41:01;;;;;;;;;;;27.90;58.70;;;;;;4996571;28;19933;-59
2022/09/05 15:43:28;;;;;;;;;;;27.80;58.60;;;;;;4997354;28;19925;-58
2022/09/05 15:46:02;;;;;;;;;;;27.70;58.10;;;;;;4996311;28;20014;-57